Australia markets closed
Explore/

Largest 52-week gains

Largest 52-week gains

16.57k followers31 symbols Watchlist by Yahoo Finance

Follow this list to discover and track stocks with the greatest 52-week gain. These are stocks whose price has increased the most over the past 52 weeks (percentage change). This list is generated daily, and the gains are based on today's closing price and limited to the top 30 stocks that meet the criteria.

Curated by Yahoo Finance

Follow this list to discover and track stocks with the greatest 52-week gain. These are stocks whose price has increased the most over the past 52 weeks (percentage change). This list is generated daily, and the gains are based on today's closing price and limited to the top 30 stocks that meet the criteria.

Background

Yahoo Finance employs sophisticated algorithms to monitor and detect trends in the global financial markets. We bring these insights to you in the form of watchlists.

Find other winning investment ideas with the Yahoo Finance Screener.

How are these weighted?

The stocks in this watchlist are weighted equally.

Performance

WatchlistChange today1-month return1-year returnTotal return
Largest 52-week gains+3.21%---
^GSPC+3.06%-1.68%-8.62%+4106.17%

31 symbols

SymbolCompany nameLast priceChange% changeMarket timeVolumeAvg vol (3-month)Market cap
OXYOccidental Petroleum Corporation57.52+1.43+2.55%4:00 pm GMT-445.34M28.75M53.91B
MCKMcKesson Corporation321.55+6.89+2.19%4:04 pm GMT-42.90M1.20M46.17B
CVECenovus Energy Inc.18.83+1.03+5.79%4:00 pm GMT-411.55M11.11M37.38B
DVNDevon Energy Corporation53.77-0.97-1.77%4:00 pm GMT-434.71M12.00M35.49B
SQMSociedad Química y Minera de Chile S.A.89.28+2.71+3.13%4:00 pm GMT-41.47M2.04M25.50B
CLRContinental Resources, Inc.65.22+1.00+1.56%4:00 pm GMT-43.73M1.85M23.67B
CFCF Industries Holdings, Inc.83.32+2.72+3.37%4:03 pm GMT-45.34M3.74M17.38B
MROMarathon Oil Corporation22.05+0.03+0.14%4:00 pm GMT-433.96M21.61M15.60B
EQTEQT Corporation35.09+1.95+5.88%4:05 pm GMT-410.57M9.03M12.97B
APAAPA Corporation36.45+0.24+0.66%4:00 pm GMT-49.97M9.29M12.33B
CHKChesapeake Energy Corporation83.8+7.46+9.77%4:00 pm GMT-411.89M2.30M10.66B
ARAntero Resources Corporation32.27+1.53+4.98%4:00 pm GMT-431.75M8.95M10.04B
CARAvis Budget Group, Inc.163.83+9.31+6.03%4:00 pm GMT-45.61M1.07M7.91B
RRCRange Resources Corporation26.29+1.95+8.01%4:01 pm GMT-425.38M5.36M7.09B
MUSAMurphy USA Inc.235.06+3.19+1.38%4:00 pm GMT-4534.47k354.79k5.69B
PECOPhillips Edison & Company, Inc.33.29+0.68+2.09%4:00 pm GMT-42.76M1.37M4.28B
CYTKCytokinetics, Incorporated47.25-0.22-0.46%4:00 pm GMT-41.27M867.67k4.05B
PBFPBF Energy Inc.30.26-0.55-1.79%4:00 pm GMT-46.32M3.57M3.66B
IRTCiRhythm Technologies, Inc.115.62+5.64+5.13%4:00 pm GMT-4613.31k381.94k3.44B
CVICVR Energy, Inc.34.13+1.69+5.21%4:00 pm GMT-42.72M873.55k3.43B
ERFEnerplus Corporation12.95+0.43+3.43%4:00 pm GMT-43.01M2.59M3.36B
BTUPeabody Energy Corporation21.59+0.45+2.13%4:00 pm GMT-48.31M7.57M3.10B
CRKComstock Resources, Inc.13.19+0.31+2.41%4:00 pm GMT-45.81M3.97M3.07B
VETVermilion Energy Inc.17.86+0.85+5.00%4:00 pm GMT-43.69M2.70M2.95B
KOSKosmos Energy Ltd.6.25+0.22+3.65%4:00 pm GMT-412.11M11.11M2.85B
AMRAlpha Metallurgical Resources, Inc.134.07+5.07+3.93%4:03 pm GMT-42.60M778.10k2.51B
GLNGGolar LNG Limited22.58+0.76+3.48%4:00 pm GMT-42.18M1.70M2.44B
ARCHArch Resources, Inc.146.85+3.76+2.63%4:00 pm GMT-4906.56k902.73k2.27B
ARLPAlliance Resource Partners, L.P.17.59+0.41+2.39%4:00 pm GMT-4276.19k695.71k2.24B
NEXNexTier Oilfield Solutions Inc.9.09+0.31+3.53%4:00 pm GMT-48.42M3.74M2.22B